Observations

83.7 °F / 28.7 °C
E at 12 MPH gusting to 16 MPH
64%
70.3°F / 21.3 °C
29.72" (1006 mb)
10 mile(s)
clear
2022.12.02 0620 UTC

Observations

Surface


Raw METARs

2022/12/02 06:20
PKWA 020620Z AUTO 09010G14KT 10SM CLR 29/21 A2972 RMK AO2 T02870213

Translated METAR

Kwajalein, Bucholz AAF, Kwajalein KMR ATOL Airport, Marshall Islands (PKWA) 08-43N 167-44E 2M
Dec 02, 2022 - 01:20 AM EST / 2022.12.02 0620 UTC
Wind: from the E (090 degrees) at 12 MPH (10 KT) gusting to 16 MPH (14 KT):0
Visibility: 10 mile(s):0
Sky conditions: clear
Temperature: 83.7 F (28.7 C)
Dew Point: 70.3 F (21.3 C)
Relative Humidity: 64%
Pressure (altimeter): 29.72 in. Hg (1006 hPa)
ob: PKWA 020620Z AUTO 09010G14KT 10SM CLR 29/21 A2972 RMK AO2 T02870213
cycle: 6



Upper Air


Latest Skew-T

Skew T Diagram

Latest Data File